Skip Navigation Links Skip Navigation Links

Current Weather

Davenport Muni, Davenport, Iowa

For information only: do not use for flight planning or navigation.
Latest weather
Observation time Monday, October 18, 2021 1:52 PM CDT
Local time Monday, October 18, 2021 2:47 PM CDT
Flight conditions Visual Meteorological Conditions
Winds
Wind direction South-Southeast (160°)
Wind speed 14 mph
Wind gusting to 18 mph
Visibility 10 mi.
Sky condition
Ceiling unlimited
Sky clear
Temperature 73°F
Dewpoint 44°F
Altimeter 30.08 in.Hg
Derived measurements
Relative humidity 35%
Density altitude 1624 ft.
Sea-level pressure 30.06 in.Hg
Remarks
Fully automated report.
Automated weather observing station with precipitation discriminator.
METAR KDVN 181852Z AUTO 16012G16KT 10SM CLR 23/07 A3008 RMK AO2 SLP181 T02280067

Settings

Location code

InnerDrive.Weather 4.0.6770.0 Release CLR 4.0.30319.42000
Copyright ©2018 Inner Drive Technology. All rights reserved. Portions Copyright ©1986-2018 David Braverman.

Find weather

Site navigation


Skip Navigation Links

Place info

Page info

PayPal - The safer, easier way to pay online!

Return home.

Copyright ©2021 Inner Drive Technology. Purveyors of fine, hand-crafted computer software. Page printed 2021-10-18T19:47:10 UTC.